GSVT2: Red River, Gainesville, TX

Data processed at Sat Mar 10 2018 23:31


All information presented herein is the property of the government of the United States of America and may be revised or deleted at any time without prior notice.
Dissemination of this information without the expressed written consent of the Public Affairs Office, Tulsa District U.S. Army Corps of Engineers is strictly prohibited.
These data are gathered electronically and, as presented, have not undergone any form of quality control. These data are not guaranteed to be valid or correct.
Go to home page.
Go to station list.

Upstream stations:

Downstream station:
Previous Day
Next Day
Current Day
    
SHEF ID:       GSVT2     Red River near Gainesville, TX
STATION TYPE:  

               PRECIP     STAGE  RIV-FLOW  BAT-LOAD
                   in        ft       cfs      volt
              Ccp-Rev   Ccp-Rev   Ccp-Rev   Ccp-Rev
(US/Central)
03/08 00:00      0.00      7.49      2268     12.57
03/08 01:00      0.00      7.47      2244     12.57
03/08 02:00      0.00      7.48      2256     12.57
03/08 03:00      0.00      7.45      2221     12.57
03/08 04:00      0.00      7.43      2197     12.49
03/08 05:00      0.00      7.42      2186     12.49
03/08 06:00      0.00      7.41      2174     12.49
03/08 07:00      0.00      7.40      2162     12.41
03/08 08:00      0.00      7.39      2151     12.57
03/08 09:00      0.00      7.38      2139     13.44
03/08 10:00      0.00      7.39      2151     13.44
03/08 11:00      0.00      7.36      2116     13.53
03/08 12:00      0.00      7.35      2104     13.53
03/08 13:00      0.00      7.34      2093     13.53
03/08 14:00      0.00      7.28      2022     13.68
03/08 15:00      0.00      7.28      2022     13.37
03/08 16:00      0.00      7.26      1998     13.37
03/08 17:00      0.00      7.27      2010     13.37
03/08 18:00      0.00      7.24      1975     13.44
03/08 19:00      0.00      7.27      2010     12.97
03/08 20:00      0.00      7.25      1986     12.73
03/08 21:00      0.00      7.24      1975     12.65
03/08 22:00      0.00      7.22      1951     12.65
03/08 23:00      0.00      7.19      1916     12.57